San Buenaventura, California
Current Conditions -  °F | °C
As of 1:51 AM on Wednesday 22 Oct 2014 (Local Time) from KOXR Reporting Station
Clear Clear  
Wind Chill: 63°   Ceiling: Unl
Heat Index: 63°   Visibility: 10mi
Dew Point: 51°   Wind: 5mph
Humidity: 65%   Direction: 90°E
Pressure: 29.86"   Gusts: NA
Location:  34.2816°N, 119.223°W
Report Text: KOXR 220851Z AUTO 09004KT 10SM CLR 17/11 A2986 RMK AO2 SLP112 T01720106 58001
Loading
Personal Weather Stations






























Interactive Weather Map
Tropical Storm Tracking
New forecast layout! Learn more

10-Day Weather Forecast

Advertisements
Track Severe Weather on mobile